Time;durP1;ratioP1;P1;durP2;ratioP2;P2;SDS_P1;SDS_P2;PMS_P1;PMS_P2;Temp;Humidity;BMP_temperature;BMP_pressure;BME280_temperature;BME280_humidity;BME280_pressure;Samples;Min_cycle;Max_cycle;Signal;HPM_P1;HPM_P2
2024/02/22 00:00:32;;;;;;;1.53;1.43;;;8.90;99.90;;;;;;5015336;28;20474;-74
2024/02/22 00:02:58;;;;;;;2.87;1.97;;;8.80;99.90;;;;;;5022349;28;20470;-73
2024/02/22 00:05:23;;;;;;;3.37;2.10;;;8.90;99.90;;;;;;5053731;28;20218;-74
2024/02/22 00:07:53;;;;;;;2.70;2.33;;;8.90;99.90;;;;;;5039376;28;20216;-73
2024/02/22 00:10:19;;;;;;;2.87;2.07;;;8.90;99.90;;;;;;5043313;28;20224;-72
2024/02/22 00:12:44;;;;;;;2.50;1.77;;;8.90;99.90;;;;;;5035841;28;20524;-75
2024/02/22 00:15:13;;;;;;;2.50;1.97;;;8.90;99.90;;;;;;5040324;28;20602;-74
2024/02/22 00:17:39;;;;;;;2.10;1.60;;;8.90;99.90;;;;;;5037506;28;20721;-73
2024/02/22 00:20:06;;;;;;;2.10;1.60;;;8.80;99.90;;;;;;5040932;28;20463;-74
2024/02/22 00:22:32;;;;;;;2.87;1.70;;;8.80;99.90;;;;;;5021322;28;20238;-75
2024/02/22 00:24:59;;;;;;;2.27;1.53;;;8.80;99.90;;;;;;5025353;28;20497;-73
2024/02/22 00:27:26;;;;;;;1.73;1.63;;;8.80;99.90;;;;;;5038073;28;20979;-74
2024/02/22 00:29:51;;;;;;;1.60;1.50;;;8.80;99.90;;;;;;5039354;28;20236;-74
2024/02/22 00:32:17;;;;;;;2.43;2.07;;;8.80;99.90;;;;;;5023397;28;20520;-73
2024/02/22 00:34:42;;;;;;;2.00;1.80;;;8.90;99.90;;;;;;5049103;28;20228;-73
2024/02/22 00:37:08;;;;;;;1.73;1.63;;;8.90;99.90;;;;;;5024188;28;20204;-74
2024/02/22 00:39:34;;;;;;;2.10;1.90;;;8.90;99.90;;;;;;5021020;28;20377;-74
2024/02/22 00:41:59;;;;;;;3.43;2.07;;;8.90;99.90;;;;;;5039256;28;20224;-75
2024/02/22 00:44:25;;;;;;;2.63;2.30;;;8.90;99.90;;;;;;5028068;28;20211;-74
2024/02/22 00:46:52;;;;;;;2.17;1.70;;;9.00;99.90;;;;;;5040555;28;20223;-74
2024/02/22 00:49:18;;;;;;;3.50;1.70;;;8.90;99.90;;;;;;5047160;28;20251;-74
2024/02/22 00:51:44;;;;;;;3.07;2.00;;;8.90;99.90;;;;;;5042090;28;20507;-74
2024/02/22 00:54:09;;;;;;;2.93;1.90;;;8.90;99.90;;;;;;5027812;28;20215;-74
2024/02/22 00:56:38;;;;;;;3.50;2.03;;;8.90;99.90;;;;;;5035530;28;20261;-74
2024/02/22 00:59:03;;;;;;;2.70;1.90;;;8.90;99.90;;;;;;5040900;28;20466;-74
2024/02/22 01:01:29;;;;;;;2.73;1.73;;;8.90;99.90;;;;;;5038412;28;20237;-74
2024/02/22 01:03:55;;;;;;;2.40;1.67;;;8.90;99.90;;;;;;5036997;28;20215;-74
2024/02/22 01:06:21;;;;;;;1.80;1.70;;;9.00;99.90;;;;;;5039794;28;20297;-74
2024/02/22 01:08:46;;;;;;;2.20;1.80;;;8.90;99.90;;;;;;5036256;28;20252;-74
2024/02/22 01:11:12;;;;;;;1.47;1.37;;;9.00;99.90;;;;;;5055096;28;20215;-74
2024/02/22 01:13:37;;;;;;;2.97;1.63;;;8.90;99.90;;;;;;5024022;28;20228;-74
2024/02/22 01:16:04;;;;;;;4.50;1.63;;;9.00;99.90;;;;;;5044800;28;20229;-74
2024/02/22 01:18:30;;;;;;;2.30;1.87;;;9.00;99.90;;;;;;5039927;28;20705;-74
2024/02/22 01:20:55;;;;;;;1.93;1.70;;;9.00;99.90;;;;;;5056843;28;20524;-74
2024/02/22 01:23:21;;;;;;;2.20;1.23;;;9.00;99.90;;;;;;5040178;28;20678;-75
2024/02/22 01:25:47;;;;;;;1.10;1.03;;;9.00;99.90;;;;;;5023363;28;20749;-74
2024/02/22 01:28:13;;;;;;;1.37;1.27;;;9.00;99.90;;;;;;5039815;28;20208;-74
2024/02/22 01:30:39;;;;;;;1.37;1.27;;;9.00;99.90;;;;;;5038024;28;20473;-74
2024/02/22 01:33:05;;;;;;;1.40;1.30;;;9.00;99.90;;;;;;5044448;28;20230;-74
2024/02/22 01:35:31;;;;;;;1.30;1.20;;;8.90;99.90;;;;;;5039166;28;20451;-74
2024/02/22 01:37:56;;;;;;;1.17;1.17;;;9.00;99.90;;;;;;5054259;28;20486;-74
2024/02/22 01:40:22;;;;;;;1.87;1.40;;;9.00;99.90;;;;;;5040176;28;20219;-74
2024/02/22 01:42:48;;;;;;;1.40;1.30;;;9.00;99.90;;;;;;5043187;28;20215;-74
2024/02/22 01:45:14;;;;;;;1.20;1.10;;;9.00;99.90;;;;;;5024609;28;20753;-73
2024/02/22 01:47:41;;;;;;;1.23;0.90;;;9.00;99.90;;;;;;5056773;28;20219;-74
2024/02/22 01:50:10;;;;;;;1.00;1.00;;;9.00;99.90;;;;;;5040727;28;20473;-74
2024/02/22 01:52:37;;;;;;;1.10;1.00;;;9.00;99.90;;;;;;5038536;28;20474;-74
2024/02/22 01:55:06;;;;;;;1.50;1.40;;;9.00;99.90;;;;;;5043743;28;20520;-74
2024/02/22 01:57:33;;;;;;;1.40;1.20;;;9.00;99.90;;;;;;5048639;28;20960;-74
2024/02/22 02:00:01;;;;;;;2.60;1.43;;;9.00;99.90;;;;;;5038564;28;20512;-74
2024/02/22 02:02:27;;;;;;;1.03;1.03;;;9.10;99.90;;;;;;5020869;28;20470;-74
2024/02/22 02:04:54;;;;;;;0.77;0.77;;;9.00;99.90;;;;;;5038587;28;20512;-74
2024/02/22 02:07:20;;;;;;;1.00;0.90;;;9.10;99.90;;;;;;5040289;28;20212;-74
2024/02/22 02:09:45;;;;;;;1.00;0.90;;;9.00;99.90;;;;;;5036212;28;20481;-74
2024/02/22 02:12:11;;;;;;;1.20;0.80;;;9.00;99.90;;;;;;5038599;28;20220;-75
2024/02/22 02:14:37;;;;;;;0.77;0.70;;;9.10;99.90;;;;;;5018380;28;20307;-73
2024/02/22 02:17:02;;;;;;;0.67;0.67;;;9.10;99.90;;;;;;5039088;28;20597;-74
2024/02/22 02:19:30;;;;;;;4.10;1.30;;;9.10;99.90;;;;;;5035913;28;20365;-73
2024/02/22 02:22:18;;;;;;;1.00;0.90;;;9.00;99.90;;;;;;5037814;28;20224;-74
2024/02/22 02:25:01;;;;;;;0.80;0.80;;;9.00;99.90;;;;;;5036329;28;20461;-74
2024/02/22 02:27:27;;;;;;;0.83;0.83;;;9.00;99.90;;;;;;5038016;28;20470;-74
2024/02/22 02:29:52;;;;;;;1.00;1.00;;;9.00;99.90;;;;;;5022838;28;20461;-74
2024/02/22 02:32:18;;;;;;;1.07;0.90;;;9.00;99.90;;;;;;5039145;28;20704;-74
2024/02/22 02:34:44;;;;;;;0.63;0.63;;;9.00;99.90;;;;;;5020148;28;20749;-74
2024/02/22 02:37:11;;;;;;;0.70;0.70;;;9.10;99.90;;;;;;5035319;28;20628;-73
2024/02/22 02:39:37;;;;;;;0.60;0.60;;;9.10;99.90;;;;;;5034630;28;20582;-74
2024/02/22 02:42:03;;;;;;;0.80;0.70;;;9.10;99.90;;;;;;5036933;28;20470;-74
2024/02/22 02:44:28;;;;;;;0.60;0.60;;;9.10;99.90;;;;;;5034535;28;20454;-74
2024/02/22 02:46:54;;;;;;;0.87;0.57;;;9.10;99.90;;;;;;5038402;28;20223;-74
2024/02/22 02:49:20;;;;;;;0.70;0.70;;;9.00;99.90;;;;;;5039070;28;20219;-74
2024/02/22 02:51:47;;;;;;;0.50;0.50;;;9.10;99.90;;;;;;5032009;28;20227;-74
2024/02/22 02:54:13;;;;;;;0.77;0.70;;;9.10;99.90;;;;;;5034892;28;20208;-74
2024/02/22 02:56:38;;;;;;;0.90;0.70;;;9.10;99.90;;;;;;5034490;28;20465;-74
2024/02/22 02:59:04;;;;;;;0.90;0.70;;;9.10;99.90;;;;;;5037678;28;20307;-74
2024/02/22 03:01:29;;;;;;;0.90;0.90;;;9.10;99.90;;;;;;5037309;28;20204;-75
2024/02/22 03:03:55;;;;;;;1.50;0.70;;;9.10;99.90;;;;;;5041444;28;20220;-75
2024/02/22 03:06:21;;;;;;;0.73;0.73;;;9.10;99.90;;;;;;5028612;28;20218;-74
2024/02/22 03:08:46;;;;;;;0.63;0.50;;;9.10;99.90;;;;;;5022763;28;20216;-75
2024/02/22 03:11:12;;;;;;;0.67;0.60;;;9.10;99.90;;;;;;5042607;28;20693;-74
2024/02/22 03:13:37;;;;;;;2.50;0.60;;;9.10;99.90;;;;;;5042091;28;20228;-74
2024/02/22 03:16:04;;;;;;;0.70;0.60;;;9.10;99.90;;;;;;5043033;28;20223;-74
2024/02/22 03:18:31;;;;;;;0.50;0.50;;;9.10;99.90;;;;;;5043724;28;20216;-74
2024/02/22 03:20:57;;;;;;;0.53;0.53;;;9.20;99.90;;;;;;5023366;28;20465;-74
2024/02/22 03:23:23;;;;;;;0.70;0.70;;;9.10;99.90;;;;;;5039300;28;20471;-74
2024/02/22 03:25:50;;;;;;;0.60;0.60;;;9.10;99.90;;;;;;5041803;28;20261;-74
2024/02/22 03:28:16;;;;;;;2.00;0.60;;;9.10;99.90;;;;;;5042922;28;20525;-74
2024/02/22 03:30:42;;;;;;;0.70;0.70;;;9.10;99.90;;;;;;5057543;28;20477;-74
2024/02/22 03:33:08;;;;;;;0.70;0.60;;;9.10;99.90;;;;;;5043770;28;20573;-74
2024/02/22 03:35:39;;;;;;;0.60;0.60;;;9.10;99.90;;;;;;5042539;28;20306;-74
2024/02/22 03:38:05;;;;;;;0.50;0.50;;;9.10;99.90;;;;;;5025684;28;20505;-74
2024/02/22 03:40:31;;;;;;;0.50;0.50;;;9.10;99.90;;;;;;5029769;28;20539;-74
2024/02/22 03:43:00;;;;;;;0.50;0.50;;;9.10;99.90;;;;;;5037645;28;20973;-74
2024/02/22 03:45:25;;;;;;;0.90;0.63;;;9.10;99.90;;;;;;5023089;28;20647;-75
2024/02/22 03:47:51;;;;;;;0.80;0.80;;;9.10;99.90;;;;;;5043179;28;20470;-74
2024/02/22 03:50:17;;;;;;;0.60;0.60;;;9.10;99.90;;;;;;5042895;28;20220;-74
2024/02/22 03:52:42;;;;;;;1.10;0.80;;;9.20;99.90;;;;;;5037467;28;20223;-74
2024/02/22 03:55:10;;;;;;;0.90;0.60;;;9.10;99.90;;;;;;5043366;28;20466;-75
2024/02/22 03:57:36;;;;;;;0.60;0.60;;;9.10;99.90;;;;;;5037379;28;20291;-74
2024/02/22 04:00:04;;;;;;;0.60;0.60;;;9.10;99.90;;;;;;5026034;28;20908;-75
2024/02/22 04:02:38;;;;;;;1.00;0.90;;;9.10;99.90;;;;;;5037657;28;20265;-74
2024/02/22 04:05:04;;;;;;;0.83;0.70;;;9.10;99.90;;;;;;5044290;28;20466;-74
2024/02/22 04:07:30;;;;;;;0.60;0.60;;;9.10;99.90;;;;;;5041846;28;20910;-75
2024/02/22 04:09:55;;;;;;;0.43;0.40;;;9.10;99.90;;;;;;5039607;28;20537;-74
2024/02/22 04:12:21;;;;;;;0.50;0.50;;;9.10;99.90;;;;;;5040257;28;20748;-74
2024/02/22 04:14:47;;;;;;;0.47;0.47;;;9.10;99.90;;;;;;5041802;28;20303;-74
2024/02/22 04:17:12;;;;;;;0.63;0.60;;;9.10;99.90;;;;;;5039956;28;20216;-74
2024/02/22 04:19:38;;;;;;;1.10;0.50;;;9.10;99.90;;;;;;5043104;28;20216;-74
2024/02/22 04:22:04;;;;;;;0.50;0.50;;;9.10;99.90;;;;;;5039423;28;20310;-74
2024/02/22 04:24:30;;;;;;;0.47;0.47;;;9.20;99.90;;;;;;5037424;28;20681;-74
2024/02/22 04:26:55;;;;;;;0.70;0.70;;;9.20;99.90;;;;;;5039385;28;20458;-74
2024/02/22 04:29:21;;;;;;;1.03;0.50;;;9.10;99.90;;;;;;5040746;28;20219;-74
2024/02/22 04:31:47;;;;;;;0.90;0.63;;;9.10;99.90;;;;;;5024849;28;20234;-74
2024/02/22 04:34:13;;;;;;;0.80;0.77;;;9.20;99.90;;;;;;5042738;28;20207;-74
2024/02/22 04:36:42;;;;;;;1.27;0.90;;;9.20;99.90;;;;;;5037396;28;20467;-74
2024/02/22 04:39:09;;;;;;;0.50;0.50;;;9.20;99.90;;;;;;5045723;28;20224;-74
2024/02/22 04:41:36;;;;;;;0.40;0.40;;;9.30;99.90;;;;;;5038553;28;20960;-73
2024/02/22 04:44:02;;;;;;;4.40;0.63;;;9.20;99.90;;;;;;5038437;28;20454;-74
2024/02/22 04:46:28;;;;;;;0.50;0.43;;;9.20;99.90;;;;;;5036965;28;20450;-75
2024/02/22 04:48:54;;;;;;;0.50;0.50;;;9.20;99.90;;;;;;5039379;28;20558;-74
2024/02/22 04:51:19;;;;;;;0.50;0.50;;;9.20;99.90;;;;;;5044541;28;20608;-74
2024/02/22 04:53:45;;;;;;;0.50;0.50;;;9.30;99.90;;;;;;5044808;28;20240;-74
2024/02/22 04:56:13;;;;;;;0.60;0.47;;;9.30;99.90;;;;;;5038231;28;20298;-74
2024/02/22 04:58:38;;;;;;;0.60;0.60;;;9.30;99.90;;;;;;5035803;28;20608;-75
2024/02/22 05:01:04;;;;;;;0.50;0.50;;;9.30;99.90;;;;;;5039371;28;20471;-74
2024/02/22 05:03:30;;;;;;;0.50;0.43;;;9.30;99.90;;;;;;5054567;28;20298;-74
2024/02/22 05:05:56;;;;;;;0.50;0.50;;;9.30;99.90;;;;;;5041005;28;20461;-74
2024/02/22 05:08:23;;;;;;;0.60;0.50;;;9.20;99.90;;;;;;5043102;28;20508;-74
2024/02/22 05:10:51;;;;;;;0.50;0.50;;;9.30;99.90;;;;;;5037893;28;20245;-75
2024/02/22 05:13:18;;;;;;;0.40;0.40;;;9.20;99.90;;;;;;5025207;28;20468;-75
2024/02/22 05:15:44;;;;;;;0.47;0.40;;;9.20;99.90;;;;;;5037519;28;20489;-74
2024/02/22 05:18:11;;;;;;;0.40;0.40;;;9.30;99.90;;;;;;5039989;28;21154;-73
2024/02/22 05:20:38;;;;;;;0.40;0.40;;;9.20;99.90;;;;;;5038589;28;20211;-75
2024/02/22 05:23:05;;;;;;;0.60;0.60;;;9.30;99.90;;;;;;5041435;28;20458;-75
2024/02/22 05:25:31;;;;;;;0.57;0.53;;;9.30;99.90;;;;;;5035069;28;20466;-74
2024/02/22 05:27:57;;;;;;;1.70;0.67;;;9.30;99.90;;;;;;5042305;28;20453;-75
2024/02/22 05:30:23;;;;;;;1.60;0.40;;;9.30;99.90;;;;;;5041427;28;20273;-74
2024/02/22 05:32:49;;;;;;;0.60;0.60;;;9.30;99.90;;;;;;5037822;28;20523;-74
2024/02/22 05:35:15;;;;;;;0.50;0.50;;;9.30;99.90;;;;;;5025172;28;20461;-74
2024/02/22 05:37:41;;;;;;;1.37;0.90;;;9.30;99.90;;;;;;5039172;28;20208;-74
2024/02/22 05:40:08;;;;;;;0.47;0.47;;;9.30;99.90;;;;;;5039299;28;20318;-74
2024/02/22 05:42:34;;;;;;;0.70;0.60;;;9.30;99.90;;;;;;5034456;28;20272;-75
2024/02/22 05:45:00;;;;;;;0.50;0.40;;;9.40;99.90;;;;;;5042397;28;20451;-74
2024/02/22 05:47:26;;;;;;;0.40;0.40;;;9.40;99.90;;;;;;5018021;28;20457;-74
2024/02/22 05:49:52;;;;;;;0.40;0.40;;;9.40;99.90;;;;;;5039430;28;20463;-74
2024/02/22 05:52:18;;;;;;;0.80;0.60;;;9.40;99.90;;;;;;5049767;28;20222;-74
2024/02/22 05:54:47;;;;;;;0.93;0.43;;;9.40;99.90;;;;;;5035919;28;20220;-74
2024/02/22 05:57:13;;;;;;;0.40;0.30;;;9.40;99.90;;;;;;5038043;28;20465;-74
2024/02/22 05:59:39;;;;;;;0.43;0.37;;;9.40;99.90;;;;;;5036322;28;20462;-73
2024/02/22 06:02:05;;;;;;;0.30;0.30;;;9.40;99.90;;;;;;5037076;28;20216;-74
2024/02/22 06:04:30;;;;;;;0.87;0.73;;;9.30;99.90;;;;;;5033727;28;20520;-74
2024/02/22 06:06:56;;;;;;;0.40;0.40;;;9.30;99.90;;;;;;5021497;28;20224;-74
2024/02/22 06:09:22;;;;;;;0.50;0.50;;;9.30;99.90;;;;;;5023958;28;20306;-73
2024/02/22 06:11:48;;;;;;;1.30;0.83;;;9.40;99.90;;;;;;5019346;28;20463;-74
2024/02/22 06:14:14;;;;;;;1.20;1.10;;;9.40;99.90;;;;;;5037522;28;20212;-74
2024/02/22 06:16:39;;;;;;;1.90;0.70;;;9.40;99.90;;;;;;5035342;28;20222;-73
2024/02/22 06:19:05;;;;;;;0.90;0.70;;;9.40;99.90;;;;;;5038789;28;20216;-73
2024/02/22 06:21:31;;;;;;;0.77;0.77;;;9.40;99.90;;;;;;5037147;28;20219;-74
2024/02/22 06:23:58;;;;;;;0.60;0.60;;;9.40;99.90;;;;;;5037353;28;20296;-73
2024/02/22 06:26:23;;;;;;;1.17;0.50;;;9.40;99.90;;;;;;5039442;28;20218;-74
2024/02/22 06:28:49;;;;;;;0.50;0.50;;;9.40;99.90;;;;;;5017174;28;20462;-74
2024/02/22 06:31:15;;;;;;;0.40;0.33;;;9.40;99.90;;;;;;5040808;28;20212;-74
2024/02/22 06:33:41;;;;;;;0.53;0.40;;;9.40;99.90;;;;;;5035712;28;20219;-73
2024/02/22 06:36:09;;;;;;;0.50;0.50;;;9.40;99.90;;;;;;5020195;28;20220;-74
2024/02/22 06:38:39;;;;;;;0.50;0.47;;;9.40;99.90;;;;;;5051304;28;20208;-74
2024/02/22 06:41:05;;;;;;;1.20;0.90;;;9.40;99.90;;;;;;5017135;28;20454;-74
2024/02/22 06:43:30;;;;;;;0.47;0.43;;;9.40;99.90;;;;;;5026227;28;21003;-74
2024/02/22 06:45:56;;;;;;;0.40;0.40;;;9.40;99.90;;;;;;5032712;28;20226;-74
2024/02/22 06:48:23;;;;;;;0.63;0.50;;;9.40;99.90;;;;;;5032476;28;20227;-75
2024/02/22 06:50:48;;;;;;;0.93;0.50;;;9.40;99.90;;;;;;5027423;28;20228;-74
2024/02/22 06:53:15;;;;;;;0.40;0.40;;;9.40;99.90;;;;;;5029450;28;20493;-74
2024/02/22 06:55:40;;;;;;;0.80;0.50;;;9.40;99.90;;;;;;5029440;28;20222;-71
2024/02/22 06:58:06;;;;;;;0.67;0.60;;;9.40;99.90;;;;;;5029137;28;20470;-74
2024/02/22 07:00:34;;;;;;;0.57;0.57;;;9.40;99.90;;;;;;5029791;28;20634;-74
2024/02/22 07:03:00;;;;;;;0.60;0.50;;;9.40;99.90;;;;;;5032610;28;20215;-75
2024/02/22 07:05:26;;;;;;;0.70;0.60;;;9.40;99.90;;;;;;5035667;28;20528;-74
2024/02/22 07:07:51;;;;;;;0.80;0.50;;;9.40;99.90;;;;;;5031044;28;20223;-74
2024/02/22 07:10:17;;;;;;;0.60;0.60;;;9.50;99.90;;;;;;5034726;28;20220;-74
2024/02/22 07:12:46;;;;;;;1.10;0.60;;;9.50;99.90;;;;;;5029011;28;20277;-75
2024/02/22 07:15:12;;;;;;;1.30;0.90;;;9.50;99.90;;;;;;5030696;28;20212;-75
2024/02/22 07:17:38;;;;;;;1.33;0.60;;;9.50;99.90;;;;;;5029069;28;20455;-74
2024/02/22 07:20:05;;;;;;;0.60;0.60;;;9.50;99.90;;;;;;5031627;28;20458;-74
2024/02/22 07:22:31;;;;;;;1.87;0.77;;;9.50;99.90;;;;;;5010033;28;20573;-75
2024/02/22 07:24:56;;;;;;;0.80;0.67;;;9.50;99.90;;;;;;5032446;28;20530;-74
2024/02/22 07:27:22;;;;;;;1.00;0.60;;;9.50;99.90;;;;;;5034083;28;20219;-74
2024/02/22 07:29:48;;;;;;;0.90;0.70;;;9.50;99.90;;;;;;5029386;28;20238;-74
2024/02/22 07:32:13;;;;;;;1.43;0.50;;;9.50;99.90;;;;;;5034899;28;20299;-74
2024/02/22 07:34:39;;;;;;;0.40;0.40;;;9.50;99.90;;;;;;5033627;28;20216;-75
2024/02/22 07:37:05;;;;;;;0.67;0.60;;;9.50;99.90;;;;;;5052257;28;20338;-74
2024/02/22 07:39:31;;;;;;;0.60;0.40;;;9.50;99.90;;;;;;5035681;28;20537;-75
2024/02/22 07:41:57;;;;;;;0.50;0.50;;;9.50;99.90;;;;;;5038204;28;20208;-74
2024/02/22 07:44:22;;;;;;;0.77;0.60;;;9.50;99.90;;;;;;5040254;28;20238;-75
2024/02/22 07:46:48;;;;;;;0.50;0.50;;;9.60;99.90;;;;;;5036780;28;21026;-74
2024/02/22 07:49:15;;;;;;;0.80;0.60;;;9.60;99.90;;;;;;5040316;28;20249;-74
2024/02/22 07:51:40;;;;;;;0.97;0.60;;;9.60;99.90;;;;;;5038328;28;20624;-75
2024/02/22 07:54:08;;;;;;;0.60;0.60;;;9.60;99.90;;;;;;5044064;28;20478;-74
2024/02/22 07:56:39;;;;;;;0.60;0.60;;;9.60;99.90;;;;;;5035369;28;20314;-75
2024/02/22 07:59:05;;;;;;;1.10;0.83;;;9.60;99.90;;;;;;5044148;28;20991;-74
2024/02/22 08:01:30;;;;;;;1.07;0.63;;;9.70;99.90;;;;;;5038216;28;20469;-73
2024/02/22 08:03:57;;;;;;;1.03;0.87;;;9.70;99.90;;;;;;5037807;28;21089;-74
2024/02/22 08:06:23;;;;;;;0.63;0.63;;;9.70;99.90;;;;;;5039331;28;20534;-74
2024/02/22 08:08:48;;;;;;;0.83;0.70;;;9.70;99.90;;;;;;5022795;28;20621;-74
2024/02/22 08:11:15;;;;;;;1.20;0.70;;;9.70;99.90;;;;;;5052926;28;20224;-74
2024/02/22 08:13:42;;;;;;;3.13;0.90;;;9.70;99.90;;;;;;5031290;28;20234;-74
2024/02/22 08:16:08;;;;;;;1.23;0.40;;;9.70;99.90;;;;;;5037903;28;20942;-74
2024/02/22 08:18:36;;;;;;;0.50;0.50;;;9.70;99.90;;;;;;5033039;28;20456;-74
2024/02/22 08:21:03;;;;;;;0.60;0.60;;;9.70;99.90;;;;;;5020962;28;20470;-74
2024/02/22 08:23:28;;;;;;;3.70;0.70;;;9.80;99.90;;;;;;5037187;28;20972;-74
2024/02/22 08:25:55;;;;;;;1.90;0.70;;;9.70;99.90;;;;;;5036700;28;20516;-75
2024/02/22 08:28:22;;;;;;;0.50;0.50;;;9.80;99.90;;;;;;5039195;28;20211;-74
2024/02/22 08:30:48;;;;;;;0.67;0.67;;;9.80;99.90;;;;;;5034170;28;20550;-75
2024/02/22 08:33:17;;;;;;;1.53;0.40;;;9.80;99.90;;;;;;5035487;28;20898;-74
2024/02/22 08:35:43;;;;;;;0.50;0.43;;;9.80;99.90;;;;;;5035326;28;20318;-74
2024/02/22 08:38:10;;;;;;;0.53;0.50;;;9.80;99.90;;;;;;5039746;28;20474;-74
2024/02/22 08:40:36;;;;;;;0.83;0.73;;;9.80;99.90;;;;;;5032610;28;20223;-73
2024/02/22 08:43:03;;;;;;;0.60;0.50;;;9.80;99.90;;;;;;5021931;28;20454;-75
2024/02/22 08:45:31;;;;;;;0.50;0.50;;;9.90;99.90;;;;;;5038692;28;20975;-74
2024/02/22 08:47:56;;;;;;;0.83;0.80;;;9.80;99.90;;;;;;5021267;28;20520;-74
2024/02/22 08:50:22;;;;;;;0.50;0.50;;;9.90;99.90;;;;;;5037443;28;20498;-75
2024/02/22 08:52:48;;;;;;;0.80;0.73;;;9.90;99.90;;;;;;5039306;28;20285;-75
2024/02/22 08:55:14;;;;;;;0.57;0.57;;;9.90;99.90;;;;;;5036195;28;20231;-74
2024/02/22 08:57:40;;;;;;;1.57;0.80;;;9.90;99.90;;;;;;5015554;28;20624;-74
2024/02/22 09:00:10;;;;;;;0.60;0.60;;;9.90;99.90;;;;;;5049333;28;20216;-74
2024/02/22 09:02:39;;;;;;;1.23;0.70;;;10.00;99.90;;;;;;5033483;28;20473;-74
2024/02/22 09:05:06;;;;;;;3.13;0.73;;;10.00;99.90;;;;;;5035899;28;20469;-74
2024/02/22 09:07:34;;;;;;;2.03;0.70;;;10.00;99.90;;;;;;5032665;28;20498;-74
2024/02/22 09:10:00;;;;;;;4.30;0.90;;;10.00;99.90;;;;;;5038887;28;21039;-74
2024/02/22 09:12:27;;;;;;;0.77;0.70;;;10.00;99.90;;;;;;5038376;28;21017;-74
2024/02/22 09:14:52;;;;;;;0.40;0.40;;;10.00;99.90;;;;;;5033779;28;20454;-74
2024/02/22 09:17:18;;;;;;;0.60;0.33;;;10.10;99.90;;;;;;5038569;28;20458;-74
2024/02/22 09:19:44;;;;;;;0.63;0.63;;;10.10;99.90;;;;;;5049117;28;20246;-74
2024/02/22 09:22:12;;;;;;;0.97;0.50;;;10.10;99.90;;;;;;5039623;28;20269;-74
2024/02/22 09:24:42;;;;;;;0.57;0.50;;;10.10;99.90;;;;;;5034189;28;20473;-74
2024/02/22 09:27:08;;;;;;;0.70;0.70;;;10.20;99.90;;;;;;5037513;28;20458;-75
2024/02/22 09:29:35;;;;;;;0.60;0.60;;;10.20;99.90;;;;;;5037506;28;20466;-75
2024/02/22 09:32:01;;;;;;;1.57;0.57;;;10.20;99.90;;;;;;5040179;28;20541;-74
2024/02/22 09:34:27;;;;;;;0.50;0.50;;;10.20;99.90;;;;;;5020995;28;20564;-74
2024/02/22 09:36:53;;;;;;;0.50;0.50;;;10.20;99.90;;;;;;5034330;28;20702;-74
2024/02/22 09:39:20;;;;;;;1.23;0.60;;;10.30;99.90;;;;;;5038634;28;20537;-74
2024/02/22 09:41:46;;;;;;;0.60;0.60;;;10.20;99.90;;;;;;5034950;28;20220;-74
2024/02/22 09:44:13;;;;;;;0.60;0.60;;;10.30;99.90;;;;;;5041029;28;20446;-74
2024/02/22 09:46:39;;;;;;;1.40;0.50;;;10.30;99.90;;;;;;5035480;28;20458;-74
2024/02/22 09:49:06;;;;;;;0.40;0.40;;;10.30;99.90;;;;;;5042788;28;20466;-74
2024/02/22 09:51:35;;;;;;;0.50;0.50;;;10.30;99.90;;;;;;5038749;28;20489;-74
2024/02/22 09:54:00;;;;;;;0.40;0.40;;;10.30;99.90;;;;;;5042326;28;20527;-74
2024/02/22 09:56:27;;;;;;;0.70;0.70;;;10.40;99.90;;;;;;5045851;28;20570;-74
2024/02/22 09:58:53;;;;;;;0.53;0.53;;;10.40;99.90;;;;;;5041958;28;20227;-74
2024/02/22 10:01:20;;;;;;;0.60;0.60;;;10.40;99.90;;;;;;5042788;28;20459;-74
2024/02/22 10:03:46;;;;;;;0.40;0.40;;;10.40;99.90;;;;;;5028024;28;20459;-74
2024/02/22 10:06:19;;;;;;;0.40;0.30;;;10.40;99.90;;;;;;5041465;28;20584;-74
2024/02/22 10:08:47;;;;;;;0.40;0.40;;;10.50;99.90;;;;;;5026840;28;20529;-74
2024/02/22 10:11:12;;;;;;;0.50;0.50;;;10.50;99.90;;;;;;5045026;28;20450;-74
2024/02/22 10:13:38;;;;;;;0.40;0.40;;;10.50;99.90;;;;;;5042269;28;20478;-73
2024/02/22 10:16:14;;;;;;;0.60;0.47;;;10.50;99.90;;;;;;5042518;28;20298;-74
2024/02/22 10:18:41;;;;;;;0.93;0.80;;;10.50;99.90;;;;;;5042075;28;20230;-74
2024/02/22 10:21:15;;;;;;;0.57;0.50;;;10.50;99.90;;;;;;5038271;28;20565;-73
2024/02/22 10:23:40;;;;;;;0.53;0.50;;;10.60;99.90;;;;;;5027118;28;20996;-74
2024/02/22 10:26:06;;;;;;;0.40;0.40;;;10.60;99.90;;;;;;5027173;28;20520;-74
2024/02/22 10:28:32;;;;;;;0.50;0.40;;;10.60;99.90;;;;;;5038187;28;20592;-74
2024/02/22 10:31:03;;;;;;;0.50;0.40;;;10.60;99.90;;;;;;5024558;28;20222;-73
2024/02/22 10:33:32;;;;;;;0.40;0.40;;;10.60;99.90;;;;;;5042285;28;20500;-74
2024/02/22 10:36:00;;;;;;;0.50;0.40;;;10.60;99.90;;;;;;5042284;28;20462;-74
2024/02/22 10:38:30;;;;;;;0.60;0.40;;;10.60;99.90;;;;;;5041476;28;20453;-75
2024/02/22 10:40:56;;;;;;;0.60;0.60;;;10.60;99.90;;;;;;5021410;28;20960;-74
2024/02/22 10:43:25;;;;;;;0.60;0.40;;;10.70;99.90;;;;;;5040356;28;20462;-74
2024/02/22 10:45:53;;;;;;;0.83;0.80;;;10.70;99.90;;;;;;5037385;28;20476;-74
2024/02/22 10:48:21;;;;;;;0.40;0.30;;;10.70;99.90;;;;;;5035626;28;20581;-74
2024/02/22 10:50:48;;;;;;;0.40;0.33;;;10.70;99.90;;;;;;5036709;28;20474;-74
2024/02/22 10:53:16;;;;;;;0.40;0.30;;;10.70;99.90;;;;;;5036457;28;20509;-74
2024/02/22 10:55:51;;;;;;;0.40;0.40;;;10.70;99.90;;;;;;5033888;28;20469;-73
2024/02/22 10:58:19;;;;;;;0.70;0.50;;;10.70;99.90;;;;;;5037680;28;20466;-74
2024/02/22 11:00:47;;;;;;;0.40;0.40;;;10.70;99.90;;;;;;5036700;28;21026;-74
2024/02/22 11:03:15;;;;;;;0.77;0.40;;;10.80;99.90;;;;;;5040891;28;20557;-74
2024/02/22 11:05:46;;;;;;;0.73;0.63;;;10.80;99.90;;;;;;5021655;28;20497;-72
2024/02/22 11:08:21;;;;;;;1.10;0.70;;;10.80;99.90;;;;;;5038089;28;20668;-74
2024/02/22 11:11:07;;;;;;;0.53;0.50;;;10.80;99.90;;;;;;5045396;28;20469;-74
2024/02/22 11:13:36;;;;;;;0.63;0.63;;;10.80;99.90;;;;;;5038930;28;20476;-75
2024/02/22 11:16:15;;;;;;;0.60;0.50;;;10.80;99.90;;;;;;5054566;28;20459;-75
2024/02/22 11:18:41;;;;;;;0.60;0.60;;;10.80;99.90;;;;;;5033819;28;20455;-74
2024/02/22 11:21:13;;;;;;;0.60;0.53;;;10.80;99.90;;;;;;5039078;28;21035;-74
2024/02/22 11:23:39;;;;;;;0.73;0.60;;;10.80;99.90;;;;;;5040974;28;20226;-73
2024/02/22 11:26:05;;;;;;;0.43;0.40;;;10.90;99.90;;;;;;5039077;28;20458;-75
2024/02/22 11:28:30;;;;;;;0.60;0.60;;;10.90;99.90;;;;;;5039192;28;20458;-74
2024/02/22 11:31:11;;;;;;;0.50;0.47;;;10.90;99.90;;;;;;5041732;28;20289;-74
2024/02/22 11:33:37;;;;;;;0.50;0.50;;;10.90;99.90;;;;;;5061403;28;20238;-75
2024/02/22 11:36:03;;;;;;;0.77;0.50;;;10.90;99.90;;;;;;5043150;28;20466;-74
2024/02/22 11:38:29;;;;;;;0.53;0.50;;;10.90;99.90;;;;;;5046007;28;20471;-74
2024/02/22 11:41:02;;;;;;;0.50;0.40;;;11.00;99.90;;;;;;5042924;28;20531;-74
2024/02/22 11:43:27;;;;;;;1.63;0.40;;;11.00;99.90;;;;;;5044708;28;20248;-74
2024/02/22 11:46:00;;;;;;;0.50;0.50;;;11.00;99.90;;;;;;5040094;28;20493;-74
2024/02/22 11:48:27;;;;;;;0.50;0.50;;;11.00;99.90;;;;;;5047350;28;20215;-74
2024/02/22 11:50:52;;;;;;;0.67;0.67;;;11.00;99.90;;;;;;5031035;28;20470;-74
2024/02/22 11:53:18;;;;;;;0.57;0.50;;;11.00;99.90;;;;;;5045717;28;20462;-74
2024/02/22 11:55:49;;;;;;;0.50;0.50;;;11.00;99.90;;;;;;5044200;28;20243;-74
2024/02/22 11:58:15;;;;;;;0.77;0.70;;;11.00;99.90;;;;;;5046533;28;20610;-75
2024/02/22 12:00:42;;;;;;;0.73;0.60;;;11.00;99.90;;;;;;5043592;28;20505;-74
2024/02/22 12:03:08;;;;;;;0.93;0.60;;;11.00;99.90;;;;;;5059721;28;20212;-74
2024/02/22 12:05:35;;;;;;;0.90;0.67;;;11.00;99.90;;;;;;5047530;28;20466;-75
2024/02/22 12:08:00;;;;;;;0.60;0.60;;;11.10;99.90;;;;;;5044594;28;20465;-75
2024/02/22 12:10:26;;;;;;;0.70;0.70;;;11.10;99.90;;;;;;5045466;28;20466;-74
2024/02/22 12:12:52;;;;;;;0.50;0.50;;;11.00;99.90;;;;;;5046578;28;20228;-74
2024/02/22 12:15:19;;;;;;;2.00;0.83;;;11.10;99.90;;;;;;5044590;28;20216;-74
2024/02/22 12:17:45;;;;;;;0.53;0.50;;;11.10;99.90;;;;;;5028985;28;20228;-73
2024/02/22 12:20:13;;;;;;;0.63;0.60;;;11.00;99.90;;;;;;5045906;28;20477;-74
2024/02/22 12:22:38;;;;;;;0.77;0.77;;;11.00;99.90;;;;;;5060534;28;20219;-73
2024/02/22 12:25:07;;;;;;;0.60;0.60;;;11.00;99.90;;;;;;5046116;28;20450;-75
2024/02/22 12:27:32;;;;;;;0.80;0.80;;;11.00;99.90;;;;;;5028040;28;20224;-75
2024/02/22 12:29:58;;;;;;;0.70;0.70;;;11.00;99.90;;;;;;5043941;28;20481;-74
2024/02/22 12:32:24;;;;;;;1.10;0.77;;;11.00;99.90;;;;;;5044463;28;20224;-74
2024/02/22 12:34:54;;;;;;;1.40;0.67;;;11.00;99.90;;;;;;5046675;28;20669;-75
2024/02/22 12:37:19;;;;;;;1.07;0.90;;;11.00;99.90;;;;;;5059341;28;20669;-74
2024/02/22 12:39:45;;;;;;;0.80;0.80;;;11.00;99.90;;;;;;5026722;28;20511;-75
2024/02/22 12:42:11;;;;;;;0.87;0.80;;;11.00;99.90;;;;;;5044917;28;20212;-74
2024/02/22 12:44:36;;;;;;;0.60;0.60;;;11.00;99.90;;;;;;5041988;28;20279;-76
2024/02/22 12:47:04;;;;;;;0.97;0.97;;;11.00;99.90;;;;;;5056015;28;20219;-75
2024/02/22 12:49:32;;;;;;;1.00;0.87;;;11.00;99.90;;;;;;5041725;28;20240;-74